createdAt,value
2022-11-02T00:00:41.349Z,16.50
2022-11-02T00:03:09.941Z,16.40
2022-11-02T00:05:40.220Z,16.50
2022-11-02T00:08:08.400Z,16.50
2022-11-02T00:10:38.003Z,16.50
2022-11-02T00:13:06.624Z,16.50
2022-11-02T00:15:37.173Z,16.50
2022-11-02T00:18:08.994Z,16.50
2022-11-02T00:20:38.454Z,16.50
2022-11-02T00:23:10.788Z,16.40
2022-11-02T00:25:46.401Z,16.50
2022-11-02T00:28:17.439Z,16.50
2022-11-02T00:30:45.944Z,16.40
2022-11-02T00:33:14.171Z,16.40
2022-11-02T00:35:45.030Z,16.40
2022-11-02T00:38:13.661Z,16.40
2022-11-02T00:40:43.583Z,16.40
2022-11-02T00:43:12.821Z,16.40
2022-11-02T00:45:41.156Z,16.40
2022-11-02T00:48:09.451Z,16.40
2022-11-02T00:50:38.177Z,16.40
2022-11-02T00:53:06.606Z,16.40
2022-11-02T00:55:35.401Z,16.40
2022-11-02T00:58:06.996Z,16.40
2022-11-02T01:00:35.462Z,16.40
2022-11-02T01:03:04.659Z,16.40
2022-11-02T01:05:33.099Z,16.40
2022-11-02T01:08:01.526Z,16.40
2022-11-02T01:10:29.900Z,16.40
2022-11-02T01:12:58.264Z,16.30
2022-11-02T01:15:27.852Z,16.40
2022-11-02T01:17:56.500Z,16.40
2022-11-02T01:20:25.028Z,16.30
2022-11-02T01:22:53.940Z,16.30
2022-11-02T01:25:22.522Z,16.30
2022-11-02T01:27:52.712Z,16.30
2022-11-02T01:30:21.306Z,16.30
2022-11-02T01:32:50.983Z,16.30
2022-11-02T01:35:19.227Z,16.30
2022-11-02T01:37:50.344Z,16.30
2022-11-02T01:40:18.769Z,16.30
2022-11-02T01:42:47.083Z,16.30
2022-11-02T01:45:16.612Z,16.30
2022-11-02T01:47:47.346Z,16.30
2022-11-02T01:50:20.949Z,16.30
2022-11-02T01:52:49.258Z,16.30
2022-11-02T01:55:22.302Z,16.20
2022-11-02T01:57:54.861Z,16.30
2022-11-02T02:00:23.447Z,16.30
2022-11-02T02:02:57.772Z,16.30
2022-11-02T02:05:27.982Z,16.20
2022-11-02T02:07:57.491Z,16.30
2022-11-02T02:10:26.039Z,16.30
2022-11-02T02:12:54.418Z,16.20
2022-11-02T02:15:28.511Z,16.20
2022-11-02T02:18:03.941Z,16.20
2022-11-02T02:20:58.195Z,16.20
2022-11-02T02:24:00.273Z,16.20
2022-11-02T02:26:56.349Z,16.20
2022-11-02T02:29:31.513Z,16.20
2022-11-02T02:32:04.103Z,16.20
2022-11-02T02:34:38.377Z,16.20
2022-11-02T02:37:11.094Z,16.20
2022-11-02T02:39:44.563Z,16.20
2022-11-02T02:42:20.274Z,16.20
2022-11-02T02:44:55.464Z,16.20
2022-11-02T02:47:28.882Z,16.20
2022-11-02T02:50:04.909Z,16.20
2022-11-02T02:52:38.683Z,16.20
2022-11-02T02:55:09.461Z,16.10
2022-11-02T02:57:38.845Z,16.20
2022-11-02T03:00:14.911Z,16.10
2022-11-02T03:03:00.674Z,16.10
2022-11-02T03:05:32.015Z,16.10
2022-11-02T03:08:06.098Z,16.10
2022-11-02T03:10:40.862Z,16.10
2022-11-02T03:13:30.577Z,16.10
2022-11-02T03:16:05.574Z,16.10
2022-11-02T03:18:43.427Z,16.00
2022-11-02T03:21:21.659Z,16.10
2022-11-02T03:23:56.335Z,16.10
2022-11-02T03:26:30.049Z,16.00
2022-11-02T03:29:05.750Z,16.00
2022-11-02T03:31:40.560Z,16.00
2022-11-02T03:34:18.564Z,16.00
2022-11-02T03:36:50.691Z,16.00
2022-11-02T03:39:23.713Z,15.90
2022-11-02T03:41:53.942Z,15.90
2022-11-02T03:44:26.254Z,15.90
2022-11-02T03:47:02.532Z,15.90
2022-11-02T03:49:32.726Z,16.00
2022-11-02T03:52:06.324Z,15.90
2022-11-02T03:54:47.603Z,15.90
2022-11-02T03:57:23.251Z,15.90
2022-11-02T03:59:52.681Z,15.90
2022-11-02T04:02:23.475Z,15.90
2022-11-02T04:04:54.060Z,15.90
2022-11-02T04:07:56.787Z,15.90
2022-11-02T04:10:32.869Z,15.90
2022-11-02T04:13:20.417Z,15.80
2022-11-02T04:15:56.828Z,15.80
2022-11-02T04:18:44.569Z,15.80
2022-11-02T04:21:15.630Z,15.80
2022-11-02T04:24:01.549Z,15.80
2022-11-02T04:26:29.910Z,15.80
2022-11-02T04:28:58.863Z,15.80
2022-11-02T04:31:28.041Z,15.80
2022-11-02T04:34:00.937Z,15.70
2022-11-02T04:36:34.656Z,15.70
2022-11-02T04:39:01.966Z,15.70
2022-11-02T04:41:45.426Z,15.70
2022-11-02T04:44:33.186Z,15.70
2022-11-02T04:47:12.427Z,15.70
2022-11-02T04:49:42.724Z,15.60
2022-11-02T04:52:16.672Z,15.60
2022-11-02T04:54:52.021Z,15.60
2022-11-02T04:57:21.648Z,15.60
2022-11-02T04:59:51.686Z,15.60
2022-11-02T05:02:22.930Z,15.60
2022-11-02T05:04:54.713Z,15.60
2022-11-02T05:07:28.428Z,15.90
2022-11-02T05:09:57.360Z,15.60
2022-11-02T05:12:29.173Z,15.60
2022-11-02T05:14:59.509Z,15.60
2022-11-02T05:17:32.544Z,15.60
2022-11-02T05:20:10.057Z,15.60
2022-11-02T05:22:42.970Z,15.50
2022-11-02T05:25:15.001Z,15.60
2022-11-02T05:27:44.581Z,15.60
2022-11-02T05:30:24.923Z,15.50
2022-11-02T05:33:00.379Z,15.50
2022-11-02T05:35:34.253Z,15.50
2022-11-02T05:38:04.136Z,15.50
2022-11-02T05:40:38.820Z,15.50
2022-11-02T05:43:08.266Z,15.50
2022-11-02T05:45:46.769Z,15.50
2022-11-02T05:48:20.001Z,15.50
2022-11-02T05:50:52.209Z,15.50
2022-11-02T05:53:23.802Z,15.50
2022-11-02T05:56:08.459Z,15.50
2022-11-02T05:58:38.577Z,15.40
2022-11-02T06:01:10.619Z,15.40
2022-11-02T06:03:42.414Z,15.40
2022-11-02T06:06:20.081Z,15.40
2022-11-02T06:08:50.651Z,15.40
2022-11-02T06:11:23.484Z,15.40
2022-11-02T06:13:56.433Z,15.40
2022-11-02T06:16:26.026Z,15.30
2022-11-02T06:18:57.685Z,15.40
2022-11-02T06:21:30.193Z,15.30
2022-11-02T06:24:02.217Z,15.40
2022-11-02T06:26:32.254Z,15.40
2022-11-02T06:29:04.439Z,15.30
2022-11-02T06:31:32.811Z,15.30
2022-11-02T06:34:01.367Z,15.30
2022-11-02T06:36:31.086Z,15.30
2022-11-02T06:38:59.414Z,15.30
2022-11-02T06:41:27.979Z,15.30
2022-11-02T06:43:56.302Z,15.30
2022-11-02T06:46:26.881Z,15.30
2022-11-02T06:48:55.126Z,15.30
2022-11-02T06:51:23.375Z,15.30
2022-11-02T06:53:53.009Z,15.30
2022-11-02T06:56:21.316Z,15.30
2022-11-02T06:58:49.598Z,15.30
2022-11-02T07:01:18.299Z,15.30
2022-11-02T07:03:46.692Z,15.30
2022-11-02T07:06:15.090Z,15.20
2022-11-02T07:08:43.595Z,15.20
2022-11-02T07:11:16.364Z,15.20
2022-11-02T07:13:45.066Z,15.30
2022-11-02T07:16:13.529Z,15.20
2022-11-02T07:18:42.301Z,15.20
2022-11-02T07:21:12.043Z,15.20
2022-11-02T07:23:40.390Z,15.20
2022-11-02T07:26:08.654Z,15.20
2022-11-02T07:28:38.450Z,15.20
2022-11-02T07:31:07.180Z,15.10
2022-11-02T07:33:35.504Z,15.10
2022-11-02T07:36:05.531Z,15.10
2022-11-02T07:38:33.910Z,15.10
2022-11-02T07:41:02.173Z,15.20
2022-11-02T07:43:30.632Z,15.10
2022-11-02T07:46:06.082Z,15.10
2022-11-02T07:48:36.017Z,15.10
2022-11-02T07:51:05.772Z,15.20
2022-11-02T07:53:34.403Z,15.10
2022-11-02T07:56:03.894Z,15.10
2022-11-02T07:58:32.978Z,15.20
2022-11-02T08:01:02.731Z,15.10
2022-11-02T08:03:32.428Z,15.20
2022-11-02T08:06:08.020Z,15.20
2022-11-02T08:08:37.113Z,15.10
2022-11-02T08:11:07.902Z,15.20
2022-11-02T08:13:38.332Z,15.10
2022-11-02T08:16:07.421Z,15.20
2022-11-02T08:18:37.114Z,15.10
2022-11-02T08:21:06.052Z,15.20
2022-11-02T08:23:34.366Z,15.10
2022-11-02T08:26:04.927Z,15.10
2022-11-02T08:28:36.080Z,15.20
2022-11-02T08:31:04.946Z,15.10
2022-11-02T08:33:33.294Z,15.10
2022-11-02T08:36:06.186Z,15.20
2022-11-02T08:38:34.536Z,15.10
2022-11-02T08:41:02.963Z,15.10
2022-11-02T08:43:31.248Z,15.20
2022-11-02T08:46:14.946Z,15.20
2022-11-02T08:48:47.437Z,15.20
2022-11-02T08:51:17.130Z,15.20
2022-11-02T08:53:51.635Z,15.20
2022-11-02T08:56:20.576Z,15.20
2022-11-02T08:58:48.892Z,15.20
2022-11-02T09:01:17.384Z,15.20
2022-11-02T09:03:45.767Z,15.20
2022-11-02T09:06:14.294Z,15.20
2022-11-02T09:08:43.975Z,15.20
2022-11-02T09:11:12.552Z,15.20
2022-11-02T09:13:41.042Z,15.20
2022-11-02T09:16:09.984Z,15.20
2022-11-02T09:18:38.815Z,15.20
2022-11-02T09:21:10.643Z,15.20
2022-11-02T09:23:39.013Z,15.20
2022-11-02T09:26:08.878Z,15.20
2022-11-02T09:28:37.465Z,15.20
2022-11-02T09:31:09.029Z,15.20
2022-11-02T09:33:39.992Z,15.20
2022-11-02T09:36:09.398Z,15.20
2022-11-02T09:38:38.151Z,15.20
2022-11-02T09:41:15.038Z,15.30
2022-11-02T09:43:53.534Z,15.30
2022-11-02T09:46:26.377Z,15.30
2022-11-02T09:48:58.089Z,15.30
2022-11-02T09:51:29.821Z,15.20
2022-11-02T09:54:17.476Z,15.30
2022-11-02T09:56:47.542Z,15.30
2022-11-02T09:59:17.773Z,15.30
2022-11-02T10:02:02.208Z,15.30
2022-11-02T10:05:03.916Z,15.30
2022-11-02T10:07:43.279Z,15.40
2022-11-02T10:10:16.854Z,15.40
2022-11-02T10:12:53.562Z,15.40
2022-11-02T10:15:24.862Z,15.40
2022-11-02T10:17:57.513Z,15.40
2022-11-02T10:20:28.815Z,15.40
2022-11-02T10:23:03.638Z,15.40
2022-11-02T10:25:34.701Z,15.40
2022-11-02T10:28:11.422Z,15.40
2022-11-02T10:30:40.183Z,15.40
2022-11-02T10:33:14.746Z,15.40
2022-11-02T10:36:17.367Z,15.40
2022-11-02T10:38:50.807Z,15.40
2022-11-02T10:41:31.222Z,15.40
2022-11-02T10:44:19.234Z,15.40
2022-11-02T10:47:02.558Z,15.50
2022-11-02T10:50:05.890Z,15.50
2022-11-02T10:52:39.672Z,15.50
2022-11-02T10:55:18.402Z,15.50
2022-11-02T10:57:49.328Z,15.50
2022-11-02T11:00:30.325Z,15.50
2022-11-02T11:03:10.845Z,15.50
2022-11-02T11:05:59.221Z,15.50
2022-11-02T11:08:36.729Z,15.60
2022-11-02T11:11:18.145Z,15.60
2022-11-02T11:16:48.408Z,15.60
2022-11-02T11:19:38.771Z,15.60
2022-11-02T11:22:26.699Z,15.60
2022-11-02T11:24:55.115Z,15.60
2022-11-02T11:27:26.507Z,15.70
2022-11-02T11:29:59.411Z,15.70
2022-11-02T11:32:30.735Z,15.70
2022-11-02T11:35:02.082Z,15.70
2022-11-02T11:37:30.961Z,15.70
2022-11-02T11:40:01.949Z,15.80
2022-11-02T11:42:33.458Z,15.80
2022-11-02T11:45:07.139Z,15.80
2022-11-02T11:47:37.421Z,15.80
2022-11-02T11:50:19.735Z,15.80
2022-11-02T11:52:49.532Z,15.80
2022-11-02T11:55:23.844Z,15.90
2022-11-02T11:58:15.726Z,15.90
2022-11-02T12:00:45.904Z,15.90
2022-11-02T12:03:16.410Z,15.90
2022-11-02T12:06:03.333Z,15.90
2022-11-02T12:08:45.065Z,16.00
2022-11-02T12:11:29.045Z,16.00
2022-11-02T12:14:24.271Z,16.00
2022-11-02T12:17:10.561Z,16.00
2022-11-02T12:19:58.399Z,16.00
2022-11-02T12:22:38.985Z,16.00
2022-11-02T12:25:21.986Z,16.00
2022-11-02T12:27:58.632Z,16.00
2022-11-02T12:30:33.251Z,16.00
2022-11-02T12:33:25.323Z,16.00
2022-11-02T12:36:23.334Z,16.10
2022-11-02T12:39:02.322Z,16.10
2022-11-02T12:41:41.181Z,16.10
2022-11-02T12:44:23.827Z,16.10
2022-11-02T12:47:01.026Z,16.10
2022-11-02T12:49:41.868Z,16.20
2022-11-02T12:52:20.918Z,16.10
2022-11-02T12:54:53.013Z,16.20
2022-11-02T12:57:24.558Z,16.20
2022-11-02T12:59:56.300Z,16.20
2022-11-02T13:02:30.357Z,16.20
2022-11-02T13:05:04.303Z,16.20
2022-11-02T13:07:38.497Z,16.20
2022-11-02T13:10:16.732Z,16.20
2022-11-02T13:12:47.653Z,16.20
2022-11-02T13:15:21.148Z,16.20
2022-11-02T13:17:51.779Z,16.20
2022-11-02T13:20:24.515Z,16.20
2022-11-02T13:22:59.213Z,16.30
2022-11-02T13:25:32.557Z,16.30
2022-11-02T13:28:06.070Z,16.30
2022-11-02T13:30:35.401Z,16.30
2022-11-02T13:33:09.735Z,16.30
2022-11-02T13:35:41.066Z,16.30
2022-11-02T13:38:24.906Z,16.30
2022-11-02T13:41:10.663Z,16.30
2022-11-02T13:44:07.981Z,16.30
2022-11-02T13:46:59.084Z,16.40
2022-11-02T13:49:30.650Z,16.40
2022-11-02T13:52:04.517Z,16.30
2022-11-02T13:54:40.282Z,16.40
2022-11-02T13:57:26.613Z,16.30
2022-11-02T13:59:56.754Z,16.40
2022-11-02T14:02:25.936Z,16.40
2022-11-02T14:04:54.350Z,16.40
2022-11-02T14:07:29.481Z,16.40
2022-11-02T14:10:01.376Z,16.40
2022-11-02T14:12:44.529Z,16.40
2022-11-02T14:15:49.795Z,16.40
2022-11-02T14:18:31.951Z,16.40
2022-11-02T14:21:20.510Z,16.40
2022-11-02T14:23:50.144Z,16.40
2022-11-02T14:26:55.891Z,16.40
2022-11-02T14:29:52.261Z,16.40
2022-11-02T14:32:30.937Z,16.40
2022-11-02T14:35:14.503Z,16.40
2022-11-02T14:37:55.835Z,16.40
2022-11-02T14:40:32.144Z,16.50
2022-11-02T14:43:28.924Z,16.50
2022-11-02T14:46:09.276Z,16.50
2022-11-02T14:48:47.647Z,16.40
2022-11-02T14:51:23.557Z,16.50
2022-11-02T14:53:58.018Z,16.50
2022-11-02T14:56:49.972Z,16.50
2022-11-02T14:59:21.609Z,16.50
2022-11-02T15:01:56.354Z,16.50
2022-11-02T15:04:26.542Z,16.50
2022-11-02T15:06:57.898Z,16.50
2022-11-02T15:10:00.172Z,16.50
2022-11-02T15:12:37.274Z,16.50
2022-11-02T15:15:39.305Z,16.50
2022-11-02T15:18:32.489Z,16.50
2022-11-02T15:21:30.868Z,16.50
2022-11-02T15:24:16.585Z,16.50
2022-11-02T15:26:52.331Z,16.40
2022-11-02T15:29:38.701Z,16.50
2022-11-02T15:32:17.060Z,16.50
2022-11-02T15:34:51.640Z,16.40
2022-11-02T15:37:22.975Z,16.50
2022-11-02T15:39:52.313Z,16.40
2022-11-02T15:42:32.069Z,16.40
2022-11-02T15:45:46.451Z,16.40
2022-11-02T15:48:20.689Z,16.40
2022-11-02T15:50:57.806Z,16.40
2022-11-02T15:53:40.649Z,16.30
2022-11-02T15:56:33.430Z,16.40
2022-11-02T15:59:39.638Z,16.40
2022-11-02T16:02:25.355Z,16.40
2022-11-02T16:04:56.788Z,16.40
2022-11-02T16:07:33.345Z,16.30
2022-11-02T16:10:21.597Z,16.30
2022-11-02T16:12:58.562Z,16.30
2022-11-02T16:15:27.771Z,16.30
2022-11-02T16:17:58.435Z,16.20
2022-11-02T16:20:29.086Z,16.20
2022-11-02T16:23:00.934Z,16.20
2022-11-02T16:25:38.522Z,16.20
2022-11-02T16:28:17.888Z,16.20
2022-11-02T16:30:59.633Z,16.20
2022-11-02T16:33:33.956Z,16.20
2022-11-02T16:36:02.859Z,16.10
2022-11-02T16:38:32.043Z,16.10
2022-11-02T16:41:02.543Z,16.10
2022-11-02T16:43:31.958Z,16.10
2022-11-02T16:46:06.458Z,16.10
2022-11-02T16:48:36.067Z,16.10
2022-11-02T16:51:11.976Z,16.10
2022-11-02T16:53:44.135Z,16.10
2022-11-02T16:56:27.681Z,16.10
2022-11-02T16:59:01.661Z,16.10
2022-11-02T17:01:37.216Z,16.10
2022-11-02T17:04:19.469Z,16.10
2022-11-02T17:06:49.071Z,16.00
2022-11-02T17:09:25.163Z,16.00
2022-11-02T17:11:55.063Z,16.00
2022-11-02T17:14:24.851Z,16.00
2022-11-02T17:17:02.890Z,16.00
2022-11-02T17:19:56.875Z,15.90
2022-11-02T17:22:27.068Z,16.00
2022-11-02T17:25:20.181Z,15.90
2022-11-02T17:27:48.849Z,15.90
2022-11-02T17:30:43.130Z,15.90
2022-11-02T17:33:19.369Z,15.90
2022-11-02T17:35:50.460Z,15.90
2022-11-02T17:38:22.466Z,15.90
2022-11-02T17:40:52.270Z,15.80
2022-11-02T17:43:20.404Z,15.50
2022-11-02T17:45:55.295Z,15.80
2022-11-02T17:48:28.809Z,15.80
2022-11-02T17:51:00.016Z,15.80
2022-11-02T17:53:28.786Z,15.80
2022-11-02T17:55:57.455Z,15.80
2022-11-02T17:58:25.896Z,15.70
2022-11-02T18:00:55.402Z,15.70
2022-11-02T18:03:29.955Z,15.70
2022-11-02T18:06:01.013Z,15.70
2022-11-02T18:08:29.516Z,15.70
2022-11-02T18:10:58.220Z,15.70
2022-11-02T18:13:29.203Z,15.60
2022-11-02T18:15:57.664Z,15.70
2022-11-02T18:18:26.315Z,15.60
2022-11-02T18:20:54.754Z,15.60
2022-11-02T18:23:24.612Z,15.60
2022-11-02T18:25:56.599Z,15.60
2022-11-02T18:28:27.952Z,15.60
2022-11-02T18:30:56.234Z,15.60
2022-11-02T18:33:24.658Z,15.60
2022-11-02T18:35:56.068Z,15.60
2022-11-02T18:38:28.005Z,15.50
2022-11-02T18:40:56.109Z,15.50
2022-11-02T18:43:27.233Z,15.50
2022-11-02T18:45:55.453Z,15.50
2022-11-02T18:48:23.557Z,15.50
2022-11-02T18:50:51.795Z,15.50
2022-11-02T18:53:19.970Z,15.50
2022-11-02T18:55:49.478Z,15.50
2022-11-02T18:58:17.665Z,15.50
2022-11-02T19:00:48.601Z,15.50
2022-11-02T19:03:18.666Z,15.50
2022-11-02T19:06:06.956Z,15.50
2022-11-02T19:08:52.382Z,15.50
2022-11-02T19:11:22.903Z,15.50
2022-11-02T19:13:51.127Z,15.50
2022-11-02T19:16:19.395Z,15.40
2022-11-02T19:18:47.605Z,15.40
2022-11-02T19:21:15.877Z,15.40
2022-11-02T19:23:44.050Z,15.40
2022-11-02T19:26:12.276Z,15.40
2022-11-02T19:28:41.834Z,15.40
2022-11-02T19:31:10.150Z,15.40
2022-11-02T19:33:38.372Z,15.40
2022-11-02T19:36:07.235Z,15.40
2022-11-02T19:38:38.282Z,15.40
2022-11-02T19:41:10.926Z,15.40
2022-11-02T19:43:41.315Z,15.30
2022-11-02T19:46:13.313Z,15.30
2022-11-02T19:48:42.277Z,15.30
2022-11-02T19:51:14.618Z,15.30
2022-11-02T19:53:47.294Z,15.30
2022-11-02T19:56:17.486Z,15.30
2022-11-02T19:58:48.337Z,15.30
2022-11-02T20:01:18.276Z,15.20
2022-11-02T20:03:47.369Z,15.20
2022-11-02T20:06:19.660Z,15.20
2022-11-02T20:08:50.781Z,15.20
2022-11-02T20:11:19.978Z,15.20
2022-11-02T20:13:49.661Z,15.20
2022-11-02T20:16:19.420Z,15.20
2022-11-02T20:18:52.838Z,15.10
2022-11-02T20:21:25.745Z,15.20
2022-11-02T20:23:59.219Z,15.20
2022-11-02T20:26:31.195Z,15.20
2022-11-02T20:29:01.735Z,15.10
2022-11-02T20:31:32.500Z,15.10
2022-11-02T20:34:01.475Z,15.10
2022-11-02T20:36:31.337Z,15.10
2022-11-02T20:39:06.176Z,15.10
2022-11-02T20:41:35.134Z,15.00
2022-11-02T20:44:07.845Z,15.00
2022-11-02T20:46:41.608Z,15.00
2022-11-02T20:49:22.493Z,15.00
2022-11-02T20:51:59.542Z,15.00
2022-11-02T20:54:31.459Z,15.00
2022-11-02T20:57:03.880Z,15.00
2022-11-02T20:59:36.504Z,15.00
2022-11-02T21:02:10.930Z,15.00
2022-11-02T21:04:41.862Z,15.00
2022-11-02T21:07:10.406Z,14.90
2022-11-02T21:09:38.708Z,14.90
2022-11-02T21:12:26.109Z,14.90
2022-11-02T21:14:59.947Z,14.90
2022-11-02T21:17:29.872Z,14.90
2022-11-02T21:20:14.305Z,14.90
2022-11-02T21:22:50.694Z,14.90
2022-11-02T21:25:21.343Z,14.80
2022-11-02T21:27:51.693Z,14.90
2022-11-02T21:30:21.831Z,14.80
2022-11-02T21:32:52.887Z,14.80
2022-11-02T21:35:21.540Z,14.80
2022-11-02T21:37:49.932Z,14.80
2022-11-02T21:40:18.539Z,14.80
2022-11-02T21:42:46.682Z,14.80
2022-11-02T21:45:17.963Z,14.80
2022-11-02T21:47:51.749Z,14.80
2022-11-02T21:50:20.048Z,14.80
2022-11-02T21:52:48.366Z,14.70
2022-11-02T21:55:16.850Z,14.80
2022-11-02T21:57:44.940Z,14.70
2022-11-02T22:00:14.082Z,14.80
2022-11-02T22:02:41.239Z,14.80
2022-11-02T22:05:30.857Z,14.70
2022-11-02T22:08:16.635Z,14.80
2022-11-02T22:10:44.905Z,14.70
2022-11-02T22:13:30.719Z,14.70
2022-11-02T22:15:59.166Z,14.70
2022-11-02T22:18:28.496Z,14.70
2022-11-02T22:20:58.378Z,14.70
2022-11-02T22:23:26.514Z,14.70
2022-11-02T22:25:59.139Z,14.60
2022-11-02T22:28:30.849Z,14.60
2022-11-02T22:30:59.209Z,14.70
2022-11-02T22:33:27.681Z,14.70
2022-11-02T22:35:57.289Z,14.70
2022-11-02T22:38:42.738Z,14.70
2022-11-02T22:41:13.488Z,14.70
2022-11-02T22:43:41.674Z,14.70
2022-11-02T22:46:10.869Z,14.70
2022-11-02T22:48:39.358Z,14.60
2022-11-02T22:51:09.314Z,14.70
2022-11-02T22:53:37.564Z,14.70
2022-11-02T22:56:08.772Z,14.60
2022-11-02T22:58:38.198Z,14.70
2022-11-02T23:01:07.280Z,14.70
2022-11-02T23:03:36.529Z,14.60
2022-11-02T23:06:06.851Z,14.60
2022-11-02T23:08:38.173Z,14.60
2022-11-02T23:11:24.173Z,14.60
2022-11-02T23:13:55.877Z,14.60
2022-11-02T23:16:27.190Z,14.60
2022-11-02T23:19:20.613Z,14.60
2022-11-02T23:22:08.783Z,14.60
2022-11-02T23:24:56.556Z,14.50
2022-11-02T23:27:25.136Z,14.60
2022-11-02T23:30:10.848Z,14.60
2022-11-02T23:32:39.715Z,14.60
2022-11-02T23:35:25.949Z,14.50
2022-11-02T23:38:03.733Z,14.50
2022-11-02T23:40:36.886Z,14.50
2022-11-02T23:43:06.290Z,14.50
2022-11-02T23:45:34.731Z,14.50
2022-11-02T23:48:06.916Z,14.50
2022-11-02T23:50:53.183Z,14.50
2022-11-02T23:53:40.813Z,14.50
2022-11-02T23:56:33.547Z,14.40
2022-11-02T23:59:07.478Z,14.40
